Time;durP1;ratioP1;P1;durP2;ratioP2;P2;SDS_P1;SDS_P2;PMS_P1;PMS_P2;Temp;Humidity;BMP_temperature;BMP_pressure;BME280_temperature;BME280_humidity;BME280_pressure;Samples;Min_cycle;Max_cycle;Signal;HPM_P1;HPM_P2
2022/06/14 00:01:11;;;;;;;3.28;0.82;;;;;;;11.21;87.82;102338.16;5071002;28;20062;-73
2022/06/14 00:03:39;;;;;;;1.55;0.88;;;;;;;11.26;87.96;102341.28;5070452;28;20472;-72
2022/06/14 00:06:11;;;;;;;2.20;0.93;;;;;;;11.17;87.55;102329.63;5069750;28;20420;-73
2022/06/14 00:08:38;;;;;;;2.35;0.82;;;;;;;11.10;88.05;102320.47;5068953;28;20025;-73
2022/06/14 00:11:11;;;;;;;2.65;1.05;;;;;;;11.24;88.93;102335.28;5052014;28;20044;-73
2022/06/14 00:13:37;;;;;;;1.60;1.13;;;;;;;11.25;89.25;102337.78;5070804;28;20035;-73
2022/06/14 00:16:02;;;;;;;1.20;0.70;;;;;;;11.12;89.53;102316.75;5069951;28;20368;-73
2022/06/14 00:18:28;;;;;;;0.90;0.55;;;;;;;11.12;89.39;102311.47;5071334;28;20032;-73
2022/06/14 00:20:53;;;;;;;2.30;0.55;;;;;;;11.22;89.41;102337.22;5047801;28;20472;-73
2022/06/14 00:23:19;;;;;;;2.55;0.95;;;;;;;11.17;89.22;102328.78;5068868;28;20618;-73
2022/06/14 00:25:51;;;;;;;4.20;0.68;;;;;;;11.04;88.51;102310.38;5069391;28;20218;-72
2022/06/14 00:28:17;;;;;;;1.45;1.27;;;;;;;11.11;89.37;102323.00;5069503;28;20492;-72
2022/06/14 00:30:45;;;;;;;2.70;0.93;;;;;;;11.08;89.32;102320.59;5069645;28;20030;-72
2022/06/14 00:33:12;;;;;;;1.83;0.95;;;;;;;10.92;90.05;102298.94;5070284;28;20032;-73
2022/06/14 00:35:37;;;;;;;3.08;1.45;;;;;;;11.07;89.11;102326.00;5069469;28;20074;-73
2022/06/14 00:38:04;;;;;;;2.08;1.05;;;;;;;11.07;89.18;102318.91;5070265;28;20036;-73
2022/06/14 00:40:33;;;;;;;2.13;0.80;;;;;;;10.90;89.22;102304.34;5085782;28;20028;-73
2022/06/14 00:43:02;;;;;;;2.72;0.77;;;;;;;10.88;89.48;102308.06;5070387;28;20036;-73
2022/06/14 00:45:28;;;;;;;2.55;1.20;;;;;;;11.00;89.41;102333.56;5069273;28;20507;-73
2022/06/14 00:48:12;;;;;;;10.13;1.27;;;;;;;10.99;89.87;102337.13;5085903;28;20032;-73
2022/06/14 00:50:52;;;;;;;0.85;0.68;;;;;;;10.99;90.38;102333.66;5070745;28;20458;-73
2022/06/14 00:53:37;;;;;;;0.83;0.83;;;;;;;10.95;88.96;102335.69;5066583;28;20074;-73
2022/06/14 00:56:13;;;;;;;1.10;0.70;;;;;;;10.86;89.46;102320.53;5069321;28;20332;-73
2022/06/14 00:58:52;;;;;;;1.30;0.70;;;;;;;10.72;91.01;102308.38;5059250;28;20041;-73
2022/06/14 01:01:25;;;;;;;1.48;0.80;;;;;;;10.81;90.78;102330.63;5032367;28;20032;-73
2022/06/14 01:03:57;;;;;;;1.90;0.98;;;;;;;10.69;91.28;102308.59;5031957;28;20039;-73
2022/06/14 01:06:42;;;;;;;1.23;0.82;;;;;;;10.69;91.01;102313.88;5048069;28;20051;-73
2022/06/14 01:09:12;;;;;;;1.35;0.68;;;;;;;10.69;91.80;102330.59;5048550;28;20074;-73
2022/06/14 01:11:51;;;;;;;9.33;1.27;;;;;;;10.65;91.54;102328.28;5049782;28;20025;-73
2022/06/14 01:14:23;;;;;;;0.60;0.60;;;;;;;10.61;92.95;102317.09;5049581;28;20633;-73
2022/06/14 01:16:50;;;;;;;4.97;1.13;;;;;;;10.62;91.84;102305.56;5049533;28;20025;-73
2022/06/14 01:19:24;;;;;;;2.05;0.93;;;;;;;10.80;92.27;102319.22;5049418;28;20060;-73
2022/06/14 01:22:10;;;;;;;4.22;1.35;;;;;;;10.79;91.97;102301.66;5047091;28;20362;-73
2022/06/14 01:24:39;;;;;;;1.40;0.82;;;;;;;10.90;93.14;102317.53;5029450;28;20079;-73
2022/06/14 01:27:08;;;;;;;3.13;1.33;;;;;;;10.89;93.10;102317.69;5029582;28;20128;-73
2022/06/14 01:29:36;;;;;;;2.40;0.93;;;;;;;10.85;93.11;102303.03;5032267;28;20480;-73
2022/06/14 01:32:06;;;;;;;2.63;1.42;;;;;;;10.88;93.71;102302.78;5031338;28;20017;-73
2022/06/14 01:34:35;;;;;;;2.63;1.03;;;;;;;10.94;93.50;102307.59;5048451;28;20570;-73
2022/06/14 01:37:01;;;;;;;1.08;0.63;;;;;;;10.90;93.00;102301.69;5047166;28;20104;-73
2022/06/14 01:39:27;;;;;;;5.70;1.77;;;;;;;11.04;92.46;102308.59;5031032;28;20120;-73
2022/06/14 01:42:02;;;;;;;3.78;1.42;;;;;;;11.03;92.57;102291.03;5049629;28;20035;-73
2022/06/14 01:44:39;;;;;;;0.93;0.77;;;;;;;11.16;91.45;102313.88;5049217;28;20029;-73
2022/06/14 01:47:13;;;;;;;4.88;0.90;;;;;;;11.21;91.66;102319.66;5047899;28;20025;-73
2022/06/14 01:53:21;;;;;;;1.38;0.90;;;;;;;11.32;90.68;102314.38;5048853;28;20082;-73
2022/06/14 01:56:11;;;;;;;5.38;1.15;;;;;;;11.33;91.41;102318.72;5047511;28;20106;-73
2022/06/14 01:59:14;;;;;;;4.35;2.00;;;;;;;11.38;91.47;102315.72;5048877;28;20037;-73
2022/06/14 02:01:57;;;;;;;3.55;1.13;;;;;;;11.36;92.30;102331.69;5065129;28;20040;-73
2022/06/14 02:05:11;;;;;;;2.88;1.17;;;;;;;11.37;92.24;102324.63;5066888;28;20489;-73
2022/06/14 02:07:57;;;;;;;3.72;1.40;;;;;;;11.43;92.92;102309.13;5005976;28;20042;-73
2022/06/14 02:10:32;;;;;;;1.33;1.10;;;;;;;11.38;91.78;102300.69;5006937;28;20379;-73
2022/06/14 02:13:04;;;;;;;1.25;0.77;;;;;;;11.46;92.48;102314.16;5006554;28;20482;-73
2022/06/14 02:15:44;;;;;;;1.13;0.70;;;;;;;11.48;92.44;102317.50;5006393;28;20030;-73
2022/06/14 02:18:18;;;;;;;2.43;1.27;;;;;;;11.51;92.43;102319.06;5006556;28;20410;-73
2022/06/14 02:20:59;;;;;;;3.97;0.98;;;;;;;11.47;91.42;102309.69;5006042;28;20042;-73
2022/06/14 02:23:28;;;;;;;3.13;0.70;;;;;;;11.46;91.34;102322.09;5005524;28;20577;-73
2022/06/14 02:26:07;;;;;;;2.67;1.33;;;;;;;11.38;91.62;102313.06;5006231;28;20034;-73
2022/06/14 02:28:38;;;;;;;3.40;0.60;;;;;;;11.22;91.77;102300.22;5006218;28;20033;-73
2022/06/14 02:31:15;;;;;;;3.08;1.35;;;;;;;11.25;92.10;102321.09;4990508;28;20375;-73
2022/06/14 02:33:49;;;;;;;1.35;0.65;;;;;;;11.11;93.45;102307.16;4990086;28;20032;-73
2022/06/14 02:36:26;;;;;;;4.05;0.93;;;;;;;11.03;92.01;102304.25;5005726;28;20121;-73
2022/06/14 02:38:59;;;;;;;1.00;0.80;;;;;;;11.04;92.21;102305.94;5006577;28;20021;-73
2022/06/14 02:41:37;;;;;;;3.75;1.27;;;;;;;11.08;92.48;102302.13;4988335;28;20096;-73
2022/06/14 02:44:11;;;;;;;2.97;0.90;;;;;;;11.05;92.54;102298.84;5036946;28;20547;-73
2022/06/14 02:46:40;;;;;;;1.20;0.80;;;;;;;11.02;92.23;102297.28;5066893;28;20111;-73
2022/06/14 02:49:11;;;;;;;1.40;1.15;;;;;;;11.02;91.89;102293.81;5068019;28;20029;-73
2022/06/14 02:51:52;;;;;;;2.88;0.88;;;;;;;10.98;91.96;102300.28;5067078;28;20028;-73
2022/06/14 02:54:31;;;;;;;2.67;1.63;;;;;;;10.95;92.02;102300.50;5065243;28;20028;-73
2022/06/14 02:57:14;;;;;;;1.33;1.00;;;;;;;10.90;92.91;102295.56;5068032;28;20021;-73
2022/06/14 03:00:03;;;;;;;1.63;1.20;;;;;;;10.86;93.39;102299.41;5050566;28;20053;-73
2022/06/14 03:02:50;;;;;;;3.88;1.13;;;;;;;10.84;91.58;102296.03;5051515;28;20111;-73
2022/06/14 03:05:19;;;;;;;2.22;0.88;;;;;;;10.79;91.53;102298.19;5026238;28;20045;-73
2022/06/14 03:07:59;;;;;;;6.07;1.38;;;;;;;10.82;91.34;102295.31;5035132;28;20040;-73
2022/06/14 03:10:36;;;;;;;0.95;0.75;;;;;;;10.84;92.56;102296.03;5026072;28;20029;-73
2022/06/14 03:13:06;;;;;;;3.17;0.65;;;;;;;10.81;91.14;102301.56;5050688;28;20112;-73
2022/06/14 03:15:44;;;;;;;2.40;0.93;;;;;;;10.72;92.04;102299.63;5050939;28;20032;-73
2022/06/14 03:18:27;;;;;;;1.42;0.90;;;;;;;10.74;92.02;102292.44;5052130;28;20028;-73
2022/06/14 03:21:13;;;;;;;3.28;1.00;;;;;;;10.72;91.99;102296.97;5050077;28;20028;-73
2022/06/14 03:24:12;;;;;;;2.05;1.95;;;;;;;10.72;91.35;102297.81;5020400;28;20021;-73
2022/06/14 03:27:12;;;;;;;1.52;0.82;;;;;;;10.74;91.34;102295.06;5004719;28;20071;-73
2022/06/14 03:29:50;;;;;;;3.15;0.90;;;;;;;10.74;92.06;102297.72;4973116;28;20113;-73
2022/06/14 03:32:30;;;;;;;12.10;1.65;;;;;;;10.62;92.66;102281.81;4973980;28;20125;-73
2022/06/14 03:35:03;;;;;;;1.35;1.25;;;;;;;10.73;92.16;102298.66;4988292;28;20381;-73
2022/06/14 03:37:29;;;;;;;1.52;0.80;;;;;;;10.73;91.98;102290.72;4989665;28;20046;-73
2022/06/14 03:40:03;;;;;;;0.82;0.77;;;;;;;10.84;91.94;102307.47;4990146;28;20516;-73
2022/06/14 03:42:29;;;;;;;1.25;0.85;;;;;;;10.86;91.58;102304.69;4988191;28;20023;-73
2022/06/14 03:44:54;;;;;;;1.55;0.77;;;;;;;10.83;90.73;102289.09;4989593;28;20057;-73
2022/06/14 03:47:27;;;;;;;0.98;0.60;;;;;;;10.79;91.00;102287.63;4989333;28;20038;-73
2022/06/14 03:49:59;;;;;;;1.88;0.75;;;;;;;10.84;91.62;102294.25;4989417;28;20046;-73
2022/06/14 03:53:02;;;;;;;1.27;0.98;;;;;;;10.85;91.60;102300.38;4989212;28;20378;-73
2022/06/14 03:55:41;;;;;;;1.08;0.98;;;;;;;10.82;93.07;102293.53;4986528;28;20480;-73
2022/06/14 03:58:39;;;;;;;0.98;0.75;;;;;;;10.84;92.68;102303.97;4995675;28;20045;-73
2022/06/14 04:01:15;;;;;;;2.80;0.98;;;;;;;10.75;91.72;102283.53;5007691;28;20042;-73
2022/06/14 04:04:05;;;;;;;2.67;0.70;;;;;;;10.91;90.37;102305.19;5041040;28;20039;-73
2022/06/14 04:06:52;;;;;;;7.05;1.08;;;;;;;10.89;91.35;102309.75;5067766;28;20032;-73
2022/06/14 04:09:43;;;;;;;3.55;1.33;;;;;;;10.84;92.18;102310.09;5069467;28;20027;-73
2022/06/14 04:12:48;;;;;;;2.75;1.08;;;;;;;10.83;92.59;102311.06;5044893;28;20028;-73
2022/06/14 04:15:26;;;;;;;7.30;1.15;;;;;;;10.90;92.42;102311.44;5067845;28;20555;-73
2022/06/14 04:18:35;;;;;;;1.08;0.50;;;;;;;10.99;92.24;102301.97;5070743;28;20016;-73
2022/06/14 04:21:19;;;;;;;2.88;1.27;;;;;;;11.02;90.69;102305.22;5068884;28;20024;-73
2022/06/14 04:23:57;;;;;;;1.77;1.35;;;;;;;11.09;90.52;102311.72;5045038;28;20033;-73
2022/06/14 04:26:49;;;;;;;1.75;1.13;;;;;;;11.14;90.65;102313.16;5068957;28;20443;-73
2022/06/14 04:29:36;;;;;;;1.88;1.20;;;;;;;11.15;89.79;102294.56;5069811;28;20028;-73
2022/06/14 04:32:13;;;;;;;0.98;0.68;;;;;;;11.21;89.39;102303.78;5068769;28;20027;-73
2022/06/14 04:34:43;;;;;;;2.78;1.23;;;;;;;11.28;90.25;102312.94;5069868;28;20037;-73
2022/06/14 04:37:15;;;;;;;6.47;1.10;;;;;;;11.31;90.12;102315.34;5069221;28;20455;-73
2022/06/14 04:40:12;;;;;;;8.35;0.80;;;;;;;11.37;89.47;102322.81;5068160;28;20115;-73
2022/06/14 04:43:05;;;;;;;3.72;0.57;;;;;;;11.35;88.76;102311.50;5043765;28;20560;-73
2022/06/14 04:45:43;;;;;;;1.63;1.02;;;;;;;11.50;88.76;102315.59;5054819;28;20040;-73
2022/06/14 04:48:28;;;;;;;1.45;0.93;;;;;;;11.56;88.54;102318.72;5043833;28;20074;-73
2022/06/14 04:51:01;;;;;;;4.82;1.88;;;;;;;11.61;87.79;102319.22;5068734;28;20028;-73
2022/06/14 04:53:45;;;;;;;1.48;1.05;;;;;;;11.89;88.18;102323.19;5068595;28;20050;-73
2022/06/14 04:56:21;;;;;;;1.55;1.00;;;;;;;12.11;87.91;102325.78;5067653;28;20706;-73
2022/06/14 04:58:56;;;;;;;1.42;0.85;;;;;;;12.25;87.17;102303.47;5058014;28;20296;-73
2022/06/14 05:01:45;;;;;;;3.13;1.15;;;;;;;12.40;86.28;102303.19;5066477;28;20422;-73
2022/06/14 05:04:36;;;;;;;1.30;0.98;;;;;;;12.75;85.33;102317.00;5067360;28;20372;-73
2022/06/14 05:07:10;;;;;;;0.90;0.55;;;;;;;13.02;83.48;102325.41;5064569;28;20028;-73
2022/06/14 05:09:41;;;;;;;1.75;0.98;;;;;;;13.15;82.75;102315.44;5069404;28;20365;-72
2022/06/14 05:12:33;;;;;;;2.22;0.98;;;;;;;13.24;82.21;102319.09;5066898;28;20047;-73
2022/06/14 05:15:34;;;;;;;2.72;0.75;;;;;;;13.54;81.86;102331.56;5067408;28;20043;-69
2022/06/14 05:18:09;;;;;;;3.40;1.48;;;;;;;13.57;82.19;102331.31;5001443;28;20286;-73
2022/06/14 05:20:42;;;;;;;4.00;2.05;;;;;;;13.55;81.87;102328.78;4995599;28;20052;-70
2022/06/14 05:23:21;;;;;;;2.53;1.30;;;;;;;13.62;83.27;102334.41;5001817;28;20558;-69
2022/06/14 05:26:03;;;;;;;2.00;1.25;;;;;;;13.74;83.80;102343.94;5001380;28;20784;-70
2022/06/14 05:28:38;;;;;;;1.13;0.85;;;;;;;13.99;82.78;102339.13;5001002;28;20088;-71
2022/06/14 05:31:10;;;;;;;7.40;1.60;;;;;;;14.25;81.77;102336.81;5002123;28;20716;-71
2022/06/14 05:33:46;;;;;;;2.80;1.15;;;;;;;14.42;81.86;102345.91;5001931;28;20228;-71
2022/06/14 05:36:17;;;;;;;1.70;1.08;;;;;;;14.57;80.69;102344.56;4998990;28;20037;-71
2022/06/14 05:38:56;;;;;;;2.15;1.27;;;;;;;14.74;79.04;102331.53;5002769;28;20037;-71
2022/06/14 05:41:32;;;;;;;4.35;0.98;;;;;;;15.02;78.00;102346.63;4999791;28;20037;-71
2022/06/14 05:44:11;;;;;;;3.00;1.30;;;;;;;15.26;79.29;102341.81;5000246;28;20032;-70
2022/06/14 05:46:46;;;;;;;1.75;1.05;;;;;;;15.33;78.03;102330.44;4999949;28;20104;-70
2022/06/14 05:49:22;;;;;;;3.58;0.90;;;;;;;15.50;77.66;102347.44;5001722;28;20029;-70
2022/06/14 05:52:03;;;;;;;1.77;0.70;;;;;;;15.71;76.90;102349.06;5002403;28;20520;-71
2022/06/14 05:54:41;;;;;;;3.70;1.25;;;;;;;15.89;77.61;102343.81;5057590;28;20064;-70
2022/06/14 05:57:26;;;;;;;2.55;1.05;;;;;;;15.91;75.47;102337.34;5066819;28;20032;-70
2022/06/14 06:00:00;;;;;;;3.60;0.75;;;;;;;15.95;74.75;102348.56;5026835;28;20553;-71
2022/06/14 06:02:35;;;;;;;2.65;1.40;;;;;;;16.04;75.27;102353.81;5043675;28;20028;-69
2022/06/14 06:05:05;;;;;;;4.15;1.45;;;;;;;16.09;75.93;102348.06;5026399;28;20493;-70
2022/06/14 06:07:38;;;;;;;7.22;1.25;;;;;;;16.07;75.01;102335.84;5047397;28;20392;-70
2022/06/14 06:10:28;;;;;;;4.45;1.27;;;;;;;16.13;75.01;102335.25;5043850;28;20021;-69
2022/06/14 06:13:01;;;;;;;2.97;0.85;;;;;;;16.25;75.45;102344.72;5047144;28;20081;-69
2022/06/14 06:15:32;;;;;;;6.20;1.52;;;;;;;16.26;75.17;102335.72;5040499;28;20038;-71
2022/06/14 06:18:08;;;;;;;1.20;0.63;;;;;;;16.41;74.99;102355.53;5043128;28;20035;-70
2022/06/14 06:20:45;;;;;;;1.88;0.93;;;;;;;16.50;74.59;102355.63;5042820;28;20029;-70
2022/06/14 06:23:20;;;;;;;2.95;1.08;;;;;;;16.45;75.11;102345.41;5045148;28;20442;-70
2022/06/14 06:25:51;;;;;;;3.55;0.70;;;;;;;16.62;74.94;102354.41;5044737;28;20017;-70
2022/06/14 06:28:32;;;;;;;1.08;0.70;;;;;;;16.73;74.58;102356.00;5041321;28;20036;-70
2022/06/14 06:31:30;;;;;;;3.15;0.70;;;;;;;16.85;74.14;102349.44;5041651;28;20022;-71
2022/06/14 06:33:58;;;;;;;2.10;0.55;;;;;;;17.02;74.56;102355.75;5047395;28;20095;-70
2022/06/14 06:36:40;;;;;;;2.33;0.93;;;;;;;17.06;73.78;102367.78;5047641;28;20031;-70
2022/06/14 06:39:18;;;;;;;2.33;0.68;;;;;;;17.28;72.75;102371.78;5047911;28;20024;-70
2022/06/14 06:41:54;;;;;;;1.60;0.73;;;;;;;17.38;73.51;102364.50;5048190;28;20028;-71
2022/06/14 06:44:28;;;;;;;1.98;0.55;;;;;;;17.50;73.50;102366.91;5051846;28;20037;-71
2022/06/14 06:46:59;;;;;;;2.33;0.80;;;;;;;17.90;71.88;102360.94;5045865;28;20476;-70
2022/06/14 06:49:36;;;;;;;4.57;0.73;;;;;;;18.17;70.41;102364.34;5031701;28;20544;-71
2022/06/14 06:52:05;;;;;;;1.75;0.75;;;;;;;18.36;71.04;102380.09;5046005;28;20017;-70
2022/06/14 06:54:38;;;;;;;2.15;0.68;;;;;;;18.37;69.56;102359.56;5047947;28;20124;-71
2022/06/14 06:57:06;;;;;;;3.92;0.95;;;;;;;18.56;69.26;102380.63;5031157;28;20136;-71
2022/06/14 06:59:41;;;;;;;3.17;0.75;;;;;;;18.42;69.30;102367.91;5051481;28;20049;-71
2022/06/14 07:02:37;;;;;;;2.47;1.08;;;;;;;18.47;68.87;102384.31;5049654;28;20074;-71
2022/06/14 07:05:05;;;;;;;1.80;0.68;;;;;;;18.64;68.48;102387.81;5031096;28;20314;-70
2022/06/14 07:08:00;;;;;;;4.93;1.00;;;;;;;18.83;68.02;102384.00;5048777;28;20036;-70
2022/06/14 07:10:36;;;;;;;4.65;0.70;;;;;;;19.46;66.38;102388.63;5048053;28;20017;-70
2022/06/14 07:13:07;;;;;;;3.22;1.10;;;;;;;19.86;65.25;102388.69;5046239;28;20112;-70
2022/06/14 07:15:41;;;;;;;0.95;0.30;;;;;;;20.52;64.23;102390.00;5031193;28;20440;-71
2022/06/14 07:18:16;;;;;;;2.88;0.77;;;;;;;21.40;63.09;102389.59;5048802;28;20052;-71
2022/06/14 07:20:53;;;;;;;1.63;0.70;;;;;;;22.43;60.33;102394.06;5046444;28;20017;-72
2022/06/14 07:23:28;;;;;;;4.43;0.77;;;;;;;23.04;56.67;102390.03;5049475;28;20500;-71
2022/06/14 07:26:03;;;;;;;3.15;0.73;;;;;;;23.12;55.52;102390.72;5049415;28;20023;-71
2022/06/14 07:28:59;;;;;;;1.35;0.52;;;;;;;23.26;56.45;102382.75;5047959;28;20040;-71
2022/06/14 07:31:31;;;;;;;2.75;0.60;;;;;;;22.72;56.05;102401.16;5048941;28;20021;-71
2022/06/14 07:33:58;;;;;;;2.20;0.82;;;;;;;23.08;54.83;102402.09;5046787;28;20396;-71
2022/06/14 07:37:03;;;;;;;3.95;0.65;;;;;;;24.05;53.47;102392.31;5048440;28;20111;-71
2022/06/14 07:40:00;;;;;;;3.55;0.57;;;;;;;24.03;51.92;102395.19;5047221;28;20025;-71
2022/06/14 07:42:53;;;;;;;1.58;0.68;;;;;;;24.48;51.58;102397.41;5028434;28;20123;-71
2022/06/14 07:45:24;;;;;;;2.47;0.70;;;;;;;23.74;52.61;102393.59;5039386;28;20037;-71
2022/06/14 07:48:12;;;;;;;1.83;0.82;;;;;;;23.39;54.03;102389.06;5046031;28;20481;-71
2022/06/14 07:50:44;;;;;;;1.77;0.50;;;;;;;23.98;53.08;102389.59;5047291;28;20032;-71
2022/06/14 07:53:18;;;;;;;1.85;0.40;;;;;;;24.63;51.70;102384.56;5047825;28;20029;-71
2022/06/14 07:55:53;;;;;;;0.80;0.40;;;;;;;25.37;51.23;102378.09;5046582;28;20029;-71
2022/06/14 07:58:24;;;;;;;3.05;0.80;;;;;;;25.61;48.76;102383.84;5047558;28;20082;-71
2022/06/14 08:01:08;;;;;;;3.60;0.80;;;;;;;24.90;51.70;102390.78;5048344;28;20029;-71
2022/06/14 08:03:55;;;;;;;2.88;0.70;;;;;;;24.12;52.01;102387.75;5048470;28;20025;-71
2022/06/14 08:06:44;;;;;;;0.98;0.50;;;;;;;24.16;52.15;102365.56;5047136;28;20056;-72
2022/06/14 08:09:19;;;;;;;3.50;0.73;;;;;;;24.58;49.68;102377.06;5047836;28;20044;-71
2022/06/14 08:11:51;;;;;;;2.00;0.65;;;;;;;25.61;49.44;102370.34;5048295;28;20031;-71
2022/06/14 08:14:27;;;;;;;1.35;0.40;;;;;;;25.85;48.72;102364.19;5048592;28;20048;-71
2022/06/14 08:16:54;;;;;;;2.58;0.73;;;;;;;26.74;48.33;102374.28;5048532;28;20029;-70
2022/06/14 08:19:31;;;;;;;3.17;0.45;;;;;;;26.63;48.57;102371.25;5047068;28;20031;-71
2022/06/14 08:22:07;;;;;;;1.48;0.60;;;;;;;27.17;46.98;102378.91;5047502;28;20079;-70
2022/06/14 08:24:40;;;;;;;1.23;0.32;;;;;;;27.73;45.18;102377.88;5048142;28;20021;-71
2022/06/14 08:27:19;;;;;;;3.30;0.70;;;;;;;28.26;43.36;102376.34;5048270;28;20325;-71
2022/06/14 08:29:52;;;;;;;1.05;0.35;;;;;;;29.00;43.93;102381.44;5043924;28;20048;-71
2022/06/14 08:32:54;;;;;;;1.30;0.40;;;;;;;29.65;43.36;102377.69;5046391;28;20063;-71
2022/06/14 08:35:23;;;;;;;1.85;0.52;;;;;;;28.75;42.41;102382.50;4985565;28;20414;-71
2022/06/14 08:38:11;;;;;;;1.13;0.38;;;;;;;27.49;44.83;102375.03;4986061;28;20117;-71
2022/06/14 08:40:42;;;;;;;0.95;0.40;;;;;;;26.87;45.73;102383.16;4982850;28;20049;-71
2022/06/14 08:43:10;;;;;;;2.90;0.52;;;;;;;26.33;46.53;102375.63;4984079;28;20030;-70
2022/06/14 08:45:40;;;;;;;1.90;0.68;;;;;;;25.53;47.41;102360.59;4966563;28;20045;-71
2022/06/14 08:48:08;;;;;;;1.13;0.40;;;;;;;25.48;49.17;102376.63;4986407;28;20026;-72
2022/06/14 08:50:42;;;;;;;0.63;0.35;;;;;;;26.55;46.07;102376.91;4968314;28;20065;-72
2022/06/14 08:53:29;;;;;;;2.13;0.50;;;;;;;26.73;45.93;102373.47;4969062;28;20026;-70
2022/06/14 08:56:22;;;;;;;2.75;1.05;;;;;;;27.74;45.03;102376.81;4985470;28;20038;-71
2022/06/14 08:58:48;;;;;;;0.77;0.38;;;;;;;28.27;44.04;102369.88;5004902;28;20092;-71
2022/06/14 09:01:40;;;;;;;0.20;0.20;;;;;;;28.97;41.94;102371.06;5024441;28;20647;-71
2022/06/14 09:04:22;;;;;;;1.40;0.50;;;;;;;29.68;40.99;102355.44;5023357;28;20049;-71
2022/06/14 09:07:15;;;;;;;1.13;0.55;;;;;;;29.85;40.37;102364.50;5024217;28;20107;-71
2022/06/14 09:09:49;;;;;;;3.03;0.30;;;;;;;30.51;40.94;102375.81;5023885;28;20060;-71
2022/06/14 09:12:41;;;;;;;1.48;0.60;;;;;;;31.25;39.86;102363.00;5067198;28;20479;-71
2022/06/14 09:15:27;;;;;;;0.50;0.35;;;;;;;31.91;37.53;102372.00;5065562;28;20722;-71
2022/06/14 09:18:24;;;;;;;1.08;0.47;;;;;;;30.89;38.48;102354.34;5035550;28;20041;-71
2022/06/14 09:21:11;;;;;;;1.00;0.30;;;;;;;30.70;39.99;102370.91;5066078;28;20020;-71
2022/06/14 09:24:04;;;;;;;1.17;0.60;;;;;;;30.80;40.19;102367.53;5063433;28;20154;-71
2022/06/14 09:26:45;;;;;;;3.97;0.70;;;;;;;30.90;41.09;102367.72;5067128;28;20103;-71
2022/06/14 09:29:53;;;;;;;2.22;0.88;;;;;;;29.40;40.70;102373.41;5065938;28;20504;-71
2022/06/14 09:36:15;;;;;;;0.60;0.40;;;;;;;27.84;44.10;102376.28;5062858;28;20039;-71
2022/06/14 09:39:09;;;;;;;1.30;0.40;;;;;;;27.87;44.51;102378.56;5059905;28;20033;-71
2022/06/14 09:41:59;;;;;;;0.50;0.40;;;;;;;28.30;44.23;102372.09;5033433;28;20447;-71
2022/06/14 09:45:02;;;;;;;1.75;0.57;;;;;;;28.31;42.33;102371.88;5062361;28;20039;-71
2022/06/14 09:48:03;;;;;;;1.25;0.60;;;;;;;28.13;41.69;102361.06;5065752;28;20255;-70
2022/06/14 09:51:04;;;;;;;0.90;0.50;;;;;;;28.59;42.12;102373.16;5064052;28;20048;-71
2022/06/14 09:53:44;;;;;;;;;;;;;;;28.97;41.76;102363.72;5066464;28;20488;-71
2022/06/14 09:56:34;;;;;;;0.75;0.40;;;;;;;29.75;41.65;102356.19;5066839;28;19916;-71
2022/06/14 09:59:27;;;;;;;2.30;0.47;;;;;;;30.14;39.83;102362.63;5053892;28;20831;-71
2022/06/14 10:02:40;;;;;;;1.00;0.52;;;;;;;29.84;40.43;102371.03;5046462;28;20294;-71
2022/06/14 10:05:26;;;;;;;2.05;0.52;;;;;;;29.97;39.89;102363.66;4983715;28;20026;-70
2022/06/14 10:07:54;;;;;;;1.58;0.43;;;;;;;30.02;40.61;102361.84;4990691;28;20068;-70
2022/06/14 10:10:51;;;;;;;1.50;0.50;;;;;;;29.16;41.21;102352.72;4990234;28;20030;-71
2022/06/14 10:13:31;;;;;;;1.65;0.50;;;;;;;28.60;41.50;102361.22;4991049;28;20034;-71
2022/06/14 10:16:03;;;;;;;1.00;0.40;;;;;;;27.44;44.28;102363.22;4991338;28;20109;-71
2022/06/14 10:18:49;;;;;;;1.83;0.43;;;;;;;26.94;46.14;102366.00;4974977;28;20120;-71
2022/06/14 10:21:22;;;;;;;4.10;0.60;;;;;;;26.68;45.90;102365.19;4989886;28;20121;-71
2022/06/14 10:24:07;;;;;;;1.75;0.60;;;;;;;26.40;46.91;102352.84;4991056;28;20034;-70
2022/06/14 10:29:39;;;;;;;2.25;0.65;;;;;;;25.59;46.18;102361.63;4988401;28;20037;-71
2022/06/14 10:32:41;;;;;;;1.25;0.60;;;;;;;25.64;47.02;102359.09;4990732;28;20421;-72
2022/06/14 10:35:41;;;;;;;0.82;0.55;;;;;;;25.73;46.69;102349.69;4990319;28;20038;-72
2022/06/14 10:38:43;;;;;;;1.73;0.60;;;;;;;25.74;47.38;102351.34;5001461;28;20039;-71
2022/06/14 10:41:35;;;;;;;0.80;0.38;;;;;;;26.24;47.16;102353.41;5052853;28;20450;-71
2022/06/14 10:44:40;;;;;;;1.55;0.70;;;;;;;26.58;45.25;102354.84;5052559;28;20115;-71
2022/06/14 10:47:39;;;;;;;2.75;0.60;;;;;;;26.81;46.47;102350.69;5049330;28;20056;-71
2022/06/14 10:50:23;;;;;;;1.85;0.40;;;;;;;26.58;47.12;102349.41;5049805;28;20045;-71
2022/06/14 10:52:57;;;;;;;0.93;0.65;;;;;;;26.11;46.88;102343.50;5052420;28;20033;-71
2022/06/14 10:55:41;;;;;;;0.75;0.40;;;;;;;25.78;47.94;102349.88;5034272;28;20029;-71
2022/06/14 10:58:25;;;;;;;0.45;0.22;;;;;;;25.44;49.87;102354.56;5052887;28;20063;-71
2022/06/14 11:00:54;;;;;;;0.85;0.43;;;;;;;24.83;51.22;102352.19;5051916;28;20392;-71
2022/06/14 11:03:32;;;;;;;1.70;0.57;;;;;;;24.37;52.56;102353.78;5053081;28;20369;-71
2022/06/14 11:06:20;;;;;;;1.05;0.45;;;;;;;23.89;53.89;102344.94;5049894;28;20057;-71
2022/06/14 11:09:06;;;;;;;1.27;0.45;;;;;;;23.50;54.35;102341.03;5053374;28;20539;-71
2022/06/14 11:11:57;;;;;;;3.00;0.88;;;;;;;23.30;55.72;102347.16;5050565;28;20354;-72
2022/06/14 11:14:29;;;;;;;;;;;;;;;23.11;56.04;102347.84;5050440;28;20024;-71
2022/06/14 11:17:18;;;;;;;0.73;0.40;;;;;;;22.78;56.95;102348.41;5052314;28;20058;-72
2022/06/14 11:19:49;;;;;;;1.65;0.50;;;;;;;22.55;57.17;102341.38;5027599;28;20457;-72
2022/06/14 11:22:35;;;;;;;3.83;1.00;;;;;;;22.41;57.30;102341.44;5047967;28;20033;-72
2022/06/14 11:25:10;;;;;;;2.97;0.75;;;;;;;22.27;58.32;102340.50;5047744;28;20564;-71
2022/06/14 11:28:12;;;;;;;1.25;0.70;;;;;;;22.16;58.82;102331.03;5042803;28;20033;-71
2022/06/14 11:30:45;;;;;;;1.17;1.05;;;;;;;22.11;58.61;102336.16;5030192;28;20037;-72
2022/06/14 11:33:29;;;;;;;1.08;0.70;;;;;;;21.94;58.65;102338.25;5049219;28;20081;-71
2022/06/14 11:36:23;;;;;;;3.22;0.47;;;;;;;21.90;59.34;102334.25;5048062;28;20032;-72
2022/06/14 11:39:35;;;;;;;1.65;0.60;;;;;;;21.83;59.27;102331.50;5048851;28;20024;-74
2022/06/14 11:42:05;;;;;;;3.28;0.82;;;;;;;21.68;58.87;102333.38;4938768;29;20027;-72
2022/06/14 11:44:42;;;;;;;1.00;0.50;;;;;;;21.65;58.90;102326.53;4938815;29;20035;-72
2022/06/14 11:47:16;;;;;;;1.52;0.50;;;;;;;21.74;59.09;102330.78;4934325;29;20043;-72
2022/06/14 11:50:26;;;;;;;2.58;0.82;;;;;;;21.75;60.12;102324.41;4939076;28;20039;-72
2022/06/14 11:53:16;;;;;;;5.30;0.87;;;;;;;21.84;59.17;102325.13;4943162;29;20046;-72
2022/06/14 11:55:51;;;;;;;1.15;0.60;;;;;;;21.76;58.12;102307.25;4938182;29;20036;-72
2022/06/14 11:58:19;;;;;;;1.00;0.50;;;;;;;21.94;58.26;102320.25;4949940;28;20113;-73
2022/06/14 12:00:53;;;;;;;1.80;0.73;;;;;;;22.08;57.59;102318.56;4980846;28;20046;-72
2022/06/14 12:03:31;;;;;;;1.58;0.80;;;;;;;22.09;58.00;102317.53;4975441;28;20426;-71
2022/06/14 12:06:08;;;;;;;1.38;0.50;;;;;;;22.27;57.01;102324.34;4957533;28;20530;-71
2022/06/14 12:08:55;;;;;;;2.83;0.60;;;;;;;22.50;58.45;102325.00;4977860;28;20125;-71
2022/06/14 12:11:34;;;;;;;2.33;0.70;;;;;;;22.47;57.32;102320.00;4973133;28;20030;-71
2022/06/14 12:14:11;;;;;;;1.92;0.80;;;;;;;22.65;56.34;102318.72;5082349;28;20024;-72
2022/06/14 12:16:43;;;;;;;5.43;1.10;;;;;;;22.93;56.44;102318.69;5067245;28;20070;-72
2022/06/14 12:19:21;;;;;;;0.80;0.60;;;;;;;23.14;55.54;102325.91;5068144;28;20622;-71
2022/06/14 12:22:29;;;;;;;5.47;1.45;;;;;;;23.27;54.62;102320.59;5066922;28;20107;-71
2022/06/14 12:27:55;;;;;;;3.28;0.85;;;;;;;24.55;51.34;102318.13;5065511;28;20071;-71
2022/06/14 12:30:22;;;;;;;2.13;0.80;;;;;;;24.33;51.50;102297.75;5065072;28;20579;-71
2022/06/14 12:32:56;;;;;;;1.83;1.45;;;;;;;24.70;50.79;102303.59;5066158;28;20083;-72
2022/06/14 12:35:28;;;;;;;4.32;0.82;;;;;;;24.91;50.71;102303.34;5065118;28;20056;-72
2022/06/14 12:38:15;;;;;;;1.20;0.63;;;;;;;26.42;50.63;102301.22;5068524;28;20312;-72